Rossburn, Canada
Current Conditions -  °F | °C
As of 3:00 PM on Saturday 25 Oct 2014 (Local Time) from CYDN Reporting Station
Clear Clear  
Wind Chill: 55°   Ceiling: Unl
Heat Index: 55°   Visibility: 9mi
Dew Point: 27°   Wind: 23mph
Humidity: 33%   Direction: 300°WNW
Pressure: 29.96"   Gusts: 33mph
Location:  50.67°N, 100.82°W
Report Text: CYDN 252000Z AUTO 30020G29KT 9SM CLR 13/M03 A2996 RMK SLP155
Loading
Personal Weather Stations






























Interactive Weather Map
Tropical Storm Tracking
New forecast layout! Learn more

10-Day Weather Forecast

Advertisements
Track Severe Weather on mobile